createdAt,value
2019-02-22T06:00:16.000Z,95
2019-02-22T06:00:34.000Z,71
2019-02-22T06:01:33.000Z,71
2019-02-22T06:02:32.000Z,70
2019-02-22T06:03:32.000Z,70
2019-02-22T06:04:32.000Z,70
2019-02-22T06:05:32.000Z,72
2019-02-22T06:06:32.000Z,73
2019-02-22T06:07:33.000Z,74
2019-02-22T06:08:32.000Z,75
2019-02-22T06:09:33.000Z,76
2019-02-22T06:10:32.000Z,77
2019-02-22T06:11:31.000Z,77
2019-02-22T06:12:30.000Z,77
2019-02-22T06:13:31.000Z,77
2019-02-22T06:14:31.000Z,76
2019-02-22T06:15:31.000Z,77
2019-02-22T06:16:31.000Z,78
2019-02-22T06:17:31.000Z,85
2019-02-22T06:18:31.000Z,78
2019-02-22T06:19:31.000Z,78
2019-02-22T06:20:31.000Z,77
2019-02-22T06:21:31.000Z,77
2019-02-22T06:22:31.000Z,79
2019-02-22T06:23:31.000Z,79
2019-02-22T06:24:30.000Z,79
2019-02-22T06:25:30.000Z,80
2019-02-22T06:26:31.000Z,78
2019-02-22T06:27:30.000Z,79
2019-02-22T06:28:30.000Z,80
2019-02-22T06:29:31.000Z,82
2019-02-22T06:30:31.000Z,81
2019-02-22T06:31:31.000Z,80
2019-02-22T06:32:31.000Z,80
2019-02-22T06:33:31.000Z,79
2019-02-22T06:34:31.000Z,80
2019-02-22T06:35:31.000Z,81
2019-02-22T06:36:31.000Z,80
2019-02-22T06:37:31.000Z,81
2019-02-22T06:38:30.000Z,82
2019-02-22T06:39:31.000Z,89
2019-02-22T06:40:30.000Z,90
2019-02-22T06:41:30.000Z,90
2019-02-22T06:42:31.000Z,84
2019-02-22T06:43:31.000Z,84
2019-02-22T06:44:30.000Z,83
2019-02-22T06:45:31.000Z,81
2019-02-22T06:46:30.000Z,82
2019-02-22T06:47:31.000Z,82
2019-02-22T06:48:30.000Z,82
2019-02-22T06:49:30.000Z,82
2019-02-22T06:50:31.000Z,89
2019-02-22T06:51:31.000Z,82
2019-02-22T06:52:30.000Z,90
2019-02-22T06:53:30.000Z,84
2019-02-22T06:54:31.000Z,83
2019-02-22T06:55:31.000Z,83
2019-02-22T06:56:30.000Z,83
2019-02-22T06:57:30.000Z,83
2019-02-22T06:58:30.000Z,84
2019-02-22T06:59:31.000Z,85
2019-02-22T07:00:31.000Z,85
2019-02-22T07:01:30.000Z,86
2019-02-22T07:02:31.000Z,84
2019-02-22T07:03:30.000Z,85
2019-02-22T07:04:31.000Z,84
2019-02-22T07:05:31.000Z,83
2019-02-22T07:06:30.000Z,84
2019-02-22T07:07:31.000Z,86
2019-02-22T07:08:31.000Z,85
2019-02-22T07:09:32.000Z,84
2019-02-22T07:10:31.000Z,86
2019-02-22T07:11:30.000Z,84
2019-02-22T07:12:31.000Z,84
2019-02-22T07:13:32.000Z,84
2019-02-22T07:14:30.000Z,85
2019-02-22T07:15:31.000Z,85
2019-02-22T07:16:31.000Z,83
2019-02-22T07:17:30.000Z,83
2019-02-22T07:18:30.000Z,85
2019-02-22T07:19:31.000Z,84
2019-02-22T07:20:30.000Z,85
2019-02-22T07:21:31.000Z,83
2019-02-22T07:22:29.000Z,84
2019-02-22T07:23:30.000Z,84
2019-02-22T07:24:31.000Z,84
2019-02-22T07:25:31.000Z,85
2019-02-22T07:26:31.000Z,85
2019-02-22T07:27:31.000Z,84
2019-02-22T07:28:30.000Z,91
2019-02-22T07:29:31.000Z,84
2019-02-22T07:30:31.000Z,84
2019-02-22T07:31:31.000Z,84
2019-02-22T07:32:31.000Z,85
2019-02-22T07:33:30.000Z,85
2019-02-22T07:34:30.000Z,85
2019-02-22T07:35:31.000Z,84
2019-02-22T07:36:31.000Z,87
2019-02-22T07:37:30.000Z,87
2019-02-22T07:38:31.000Z,86
2019-02-22T07:39:31.000Z,85
2019-02-22T07:40:31.000Z,86
2019-02-22T07:41:31.000Z,87
2019-02-22T07:42:31.000Z,86
2019-02-22T07:43:30.000Z,90
2019-02-22T07:44:30.000Z,88
2019-02-22T07:45:31.000Z,91
2019-02-22T07:46:30.000Z,88
2019-02-22T07:47:30.000Z,91
2019-02-22T07:48:31.000Z,87
2019-02-22T07:49:31.000Z,88
2019-02-22T07:50:31.000Z,91
2019-02-22T07:51:32.000Z,91
2019-02-22T07:52:31.000Z,88
2019-02-22T07:53:31.000Z,88
2019-02-22T07:54:30.000Z,87
2019-02-22T07:55:30.000Z,88
2019-02-22T07:56:30.000Z,89
2019-02-22T07:57:30.000Z,91
2019-02-22T07:58:31.000Z,88
2019-02-22T07:59:31.000Z,87
2019-02-22T08:00:31.000Z,91
2019-02-22T08:01:30.000Z,91
2019-02-22T08:02:30.000Z,89
2019-02-22T08:03:30.000Z,91
2019-02-22T08:04:30.000Z,91
2019-02-22T08:05:30.000Z,89
2019-02-22T08:06:30.000Z,91
2019-02-22T08:07:31.000Z,90
2019-02-22T08:08:30.000Z,91
2019-02-22T08:09:31.000Z,91
2019-02-22T08:10:30.000Z,91
2019-02-22T08:11:30.000Z,90
2019-02-22T08:12:30.000Z,90
2019-02-22T08:13:31.000Z,91
2019-02-22T08:14:31.000Z,90
2019-02-22T08:15:30.000Z,91
2019-02-22T08:16:31.000Z,91
2019-02-22T08:17:30.000Z,91
2019-02-22T08:18:30.000Z,91
2019-02-22T08:19:31.000Z,91
2019-02-22T08:20:30.000Z,91
2019-02-22T08:21:30.000Z,91
2019-02-22T08:22:31.000Z,91
2019-02-22T08:23:30.000Z,91
2019-02-22T08:24:30.000Z,91
2019-02-22T08:25:31.000Z,91
2019-02-22T08:26:31.000Z,91
2019-02-22T08:27:30.000Z,91
2019-02-22T08:28:30.000Z,91
2019-02-22T08:29:30.000Z,91
2019-02-22T08:30:30.000Z,91
2019-02-22T08:31:31.000Z,91
2019-02-22T08:32:31.000Z,91
2019-02-22T08:33:31.000Z,91
2019-02-22T08:34:30.000Z,91
2019-02-22T08:35:30.000Z,91
2019-02-22T08:36:31.000Z,91
2019-02-22T08:37:30.000Z,91
2019-02-22T08:38:31.000Z,91
2019-02-22T08:39:30.000Z,91
2019-02-22T08:40:32.000Z,91
2019-02-22T08:41:30.000Z,91
2019-02-22T08:42:31.000Z,91
2019-02-22T08:43:31.000Z,91
2019-02-22T08:44:30.000Z,91
2019-02-22T08:45:30.000Z,91
2019-02-22T08:46:30.000Z,91
2019-02-22T08:47:31.000Z,91
2019-02-22T08:48:30.000Z,91
2019-02-22T08:49:30.000Z,91
2019-02-22T08:50:31.000Z,91
2019-02-22T08:51:30.000Z,91
2019-02-22T08:52:30.000Z,91
2019-02-22T08:53:31.000Z,91
2019-02-22T08:54:31.000Z,91
2019-02-22T08:55:31.000Z,91
2019-02-22T08:56:32.000Z,91
2019-02-22T08:57:30.000Z,91
2019-02-22T08:58:31.000Z,91
2019-02-22T08:59:31.000Z,91
2019-02-22T09:00:30.000Z,91
2019-02-22T09:01:30.000Z,91
2019-02-22T09:02:31.000Z,91
2019-02-22T09:03:30.000Z,91
2019-02-22T09:04:30.000Z,91
2019-02-22T09:05:31.000Z,91
2019-02-22T09:06:30.000Z,91
2019-02-22T09:07:30.000Z,91
2019-02-22T09:08:30.000Z,91
2019-02-22T09:09:31.000Z,91
2019-02-22T09:10:31.000Z,91
2019-02-22T09:11:32.000Z,91
2019-02-22T09:12:30.000Z,91
2019-02-22T09:13:31.000Z,91
2019-02-22T09:14:31.000Z,91
2019-02-22T09:15:31.000Z,91
2019-02-22T09:16:30.000Z,91
2019-02-22T09:17:31.000Z,91
2019-02-22T09:18:30.000Z,91
2019-02-22T09:19:31.000Z,91
2019-02-22T09:20:31.000Z,91
2019-02-22T09:21:31.000Z,91
2019-02-22T09:22:31.000Z,91
2019-02-22T09:23:31.000Z,91
2019-02-22T09:24:30.000Z,91
2019-02-22T09:25:30.000Z,91
2019-02-22T09:26:31.000Z,91
2019-02-22T09:27:30.000Z,91
2019-02-22T09:28:30.000Z,91
2019-02-22T09:29:31.000Z,91
2019-02-22T09:30:33.000Z,91
2019-02-22T09:31:31.000Z,91
2019-02-22T09:32:30.000Z,91
2019-02-22T09:33:31.000Z,91
2019-02-22T09:34:31.000Z,91
2019-02-22T09:35:30.000Z,91
2019-02-22T09:36:31.000Z,91
2019-02-22T09:37:32.000Z,91
2019-02-22T09:38:31.000Z,91
2019-02-22T09:39:32.000Z,91
2019-02-22T09:40:31.000Z,91
2019-02-22T09:41:30.000Z,91
2019-02-22T09:42:31.000Z,91
2019-02-22T09:43:31.000Z,91
2019-02-22T09:44:32.000Z,91
2019-02-22T09:45:31.000Z,91
2019-02-22T09:46:31.000Z,91
2019-02-22T09:47:31.000Z,91
2019-02-22T09:48:30.000Z,91
2019-02-22T09:49:30.000Z,91
2019-02-22T09:50:31.000Z,91
2019-02-22T09:51:30.000Z,91
2019-02-22T09:52:31.000Z,91
2019-02-22T09:53:30.000Z,91
2019-02-22T09:54:30.000Z,90
2019-02-22T09:55:31.000Z,91
2019-02-22T09:56:30.000Z,91
2019-02-22T09:57:30.000Z,91
2019-02-22T09:58:31.000Z,91
2019-02-22T09:59:30.000Z,91
2019-02-22T10:00:30.000Z,91
2019-02-22T10:01:31.000Z,91
2019-02-22T10:02:30.000Z,91
2019-02-22T10:03:30.000Z,91
2019-02-22T10:04:31.000Z,91
2019-02-22T10:05:31.000Z,91
2019-02-22T10:06:31.000Z,91
2019-02-22T10:07:30.000Z,90
2019-02-22T10:08:31.000Z,89
2019-02-22T10:09:32.000Z,91
2019-02-22T10:10:30.000Z,91
2019-02-22T10:11:31.000Z,91
2019-02-22T10:12:30.000Z,91
2019-02-22T10:13:31.000Z,91
2019-02-22T10:14:30.000Z,91
2019-02-22T10:15:30.000Z,91
2019-02-22T10:16:30.000Z,92
2019-02-22T10:17:31.000Z,92
2019-02-22T10:18:30.000Z,92
2019-02-22T10:19:30.000Z,92
2019-02-22T10:20:31.000Z,92
2019-02-22T10:21:31.000Z,92
2019-02-22T10:22:31.000Z,92
2019-02-22T10:23:30.000Z,92
2019-02-22T10:24:31.000Z,92
2019-02-22T10:25:31.000Z,92
2019-02-22T10:26:31.000Z,92
2019-02-22T10:27:31.000Z,92
2019-02-22T10:28:31.000Z,91
2019-02-22T10:29:30.000Z,91
2019-02-22T10:30:30.000Z,92
2019-02-22T10:31:31.000Z,91
2019-02-22T10:32:30.000Z,92
2019-02-22T10:33:30.000Z,90
2019-02-22T10:34:30.000Z,90
2019-02-22T10:35:30.000Z,90
2019-02-22T10:36:31.000Z,89
2019-02-22T10:37:31.000Z,89
2019-02-22T10:38:31.000Z,89
2019-02-22T10:39:32.000Z,89
2019-02-22T10:40:31.000Z,91
2019-02-22T10:41:31.000Z,90
2019-02-22T10:42:31.000Z,89
2019-02-22T10:43:31.000Z,89
2019-02-22T10:44:31.000Z,89
2019-02-22T10:45:31.000Z,93
2019-02-22T10:46:30.000Z,89
2019-02-22T10:47:31.000Z,89
2019-02-22T10:48:31.000Z,89
2019-02-22T10:49:30.000Z,93
2019-02-22T10:50:31.000Z,89
2019-02-22T10:51:30.000Z,88
2019-02-22T10:52:30.000Z,89
2019-02-22T10:53:31.000Z,90
2019-02-22T10:54:30.000Z,90
2019-02-22T10:55:31.000Z,90
2019-02-22T10:56:31.000Z,90
2019-02-22T10:57:30.000Z,89
2019-02-22T10:58:30.000Z,93
2019-02-22T10:59:31.000Z,90
2019-02-22T11:00:30.000Z,93
2019-02-22T11:01:31.000Z,90
2019-02-22T11:02:31.000Z,89
2019-02-22T11:03:30.000Z,89
2019-02-22T11:04:30.000Z,93
2019-02-22T11:05:30.000Z,93
2019-02-22T11:06:31.000Z,89
2019-02-22T11:07:31.000Z,89
2019-02-22T11:08:30.000Z,89
2019-02-22T11:09:32.000Z,89
2019-02-22T11:10:30.000Z,89
2019-02-22T11:11:31.000Z,89
2019-02-22T11:12:31.000Z,90
2019-02-22T11:13:31.000Z,89
2019-02-22T11:14:30.000Z,90
2019-02-22T11:15:30.000Z,89
2019-02-22T11:16:30.000Z,88
2019-02-22T11:17:31.000Z,88
2019-02-22T11:18:30.000Z,85
2019-02-22T11:19:30.000Z,83
2019-02-22T11:20:31.000Z,82
2019-02-22T11:21:31.000Z,81
2019-02-22T11:22:30.000Z,79
2019-02-22T11:23:31.000Z,79
2019-02-22T11:24:32.000Z,79
2019-02-22T11:25:31.000Z,78
2019-02-22T11:26:31.000Z,77
2019-02-22T11:27:30.000Z,78
2019-02-22T11:28:30.000Z,75
2019-02-22T11:29:30.000Z,76
2019-02-22T11:30:30.000Z,74
2019-02-22T11:31:30.000Z,73
2019-02-22T11:32:31.000Z,69
2019-02-22T11:33:30.000Z,70
2019-02-22T11:34:31.000Z,69
2019-02-22T11:35:30.000Z,69
2019-02-22T11:36:31.000Z,71
2019-02-22T11:37:30.000Z,72
2019-02-22T11:38:30.000Z,73
2019-02-22T11:39:32.000Z,74
2019-02-22T11:40:31.000Z,75
2019-02-22T11:41:30.000Z,76
2019-02-22T11:42:30.000Z,77
2019-02-22T11:43:30.000Z,76
2019-02-22T11:44:31.000Z,78
2019-02-22T11:45:30.000Z,79
2019-02-22T11:46:30.000Z,79
2019-02-22T11:47:31.000Z,78
2019-02-22T11:48:31.000Z,78
2019-02-22T11:49:31.000Z,79
2019-02-22T11:50:30.000Z,79
2019-02-22T11:51:31.000Z,79
2019-02-22T11:52:30.000Z,79
2019-02-22T11:53:30.000Z,79
2019-02-22T11:54:31.000Z,79
2019-02-22T11:55:30.000Z,80
2019-02-22T11:56:30.000Z,80
2019-02-22T11:57:30.000Z,80
2019-02-22T11:58:30.000Z,80
2019-02-22T11:59:31.000Z,80
2019-02-22T12:00:31.000Z,80
2019-02-22T12:01:30.000Z,80
2019-02-22T12:02:30.000Z,80
2019-02-22T12:03:30.000Z,80
2019-02-22T12:04:30.000Z,80
2019-02-22T12:05:31.000Z,80
2019-02-22T12:06:31.000Z,80
2019-02-22T12:07:31.000Z,80
2019-02-22T12:08:30.000Z,80
2019-02-22T12:09:32.000Z,80
2019-02-22T12:10:31.000Z,82
2019-02-22T12:11:30.000Z,79
2019-02-22T12:12:29.000Z,72
2019-02-22T12:13:31.000Z,72
2019-02-22T12:14:31.000Z,69
2019-02-22T12:15:29.000Z,69
2019-02-22T12:16:31.000Z,68
2019-02-22T12:17:31.000Z,69
2019-02-22T12:18:30.000Z,68
2019-02-22T12:19:30.000Z,65
2019-02-22T12:20:30.000Z,65
2019-02-22T12:21:29.000Z,65
2019-02-22T12:22:30.000Z,66
2019-02-22T12:23:31.000Z,64
2019-02-22T12:24:31.000Z,61
2019-02-22T12:25:30.000Z,63
2019-02-22T12:26:31.000Z,62
2019-02-22T12:27:31.000Z,60
2019-02-22T12:28:30.000Z,60
2019-02-22T12:29:31.000Z,60
2019-02-22T12:30:30.000Z,60
2019-02-22T12:31:31.000Z,59
2019-02-22T12:32:30.000Z,60
2019-02-22T12:33:31.000Z,62
2019-02-22T12:34:29.000Z,61
2019-02-22T12:35:30.000Z,63
2019-02-22T12:36:31.000Z,60
2019-02-22T12:37:29.000Z,57
2019-02-22T12:38:30.000Z,58
2019-02-22T12:39:31.000Z,57
2019-02-22T12:40:30.000Z,56
2019-02-22T12:41:30.000Z,57
2019-02-22T12:42:29.000Z,57
2019-02-22T12:43:30.000Z,57
2019-02-22T12:44:30.000Z,58
2019-02-22T12:45:30.000Z,59
2019-02-22T12:46:29.000Z,58
2019-02-22T12:47:29.000Z,61
2019-02-22T12:48:30.000Z,60
2019-02-22T12:49:29.000Z,60
2019-02-22T12:50:30.000Z,60
2019-02-22T12:51:29.000Z,59
2019-02-22T12:52:30.000Z,60
2019-02-22T12:53:29.000Z,61
2019-02-22T12:54:29.000Z,61
2019-02-22T12:55:30.000Z,61
2019-02-22T12:56:30.000Z,62
2019-02-22T12:57:32.000Z,63
2019-02-22T12:58:30.000Z,62
2019-02-22T12:59:31.000Z,62
2019-02-22T13:00:29.000Z,60
2019-02-22T13:01:29.000Z,61
2019-02-22T13:02:31.000Z,57
2019-02-22T13:03:29.000Z,60
2019-02-22T13:04:31.000Z,55
2019-02-22T13:05:30.000Z,59
2019-02-22T13:06:29.000Z,54
2019-02-22T13:07:30.000Z,56
2019-02-22T13:08:28.000Z,57
2019-02-22T13:09:31.000Z,45
2019-02-22T13:10:29.000Z,52
2019-02-22T13:11:30.000Z,49
2019-02-22T13:12:29.000Z,44
2019-02-22T13:13:29.000Z,44
2019-02-22T13:14:30.000Z,48
2019-02-22T13:15:29.000Z,48
2019-02-22T13:16:29.000Z,48
2019-02-22T13:17:29.000Z,43
2019-02-22T13:18:29.000Z,46
2019-02-22T13:19:30.000Z,45
2019-02-22T13:20:30.000Z,45
2019-02-22T13:21:30.000Z,46
2019-02-22T13:22:29.000Z,48
2019-02-22T13:23:30.000Z,50
2019-02-22T13:24:30.000Z,52
2019-02-22T13:25:31.000Z,51
2019-02-22T13:26:29.000Z,50
2019-02-22T13:27:31.000Z,51
2019-02-22T13:28:31.000Z,51
2019-02-22T13:29:31.000Z,53
2019-02-22T13:30:29.000Z,51
2019-02-22T13:31:31.000Z,53
2019-02-22T13:32:30.000Z,53
2019-02-22T13:33:29.000Z,53
2019-02-22T13:34:31.000Z,54
2019-02-22T13:35:30.000Z,54
2019-02-22T13:36:30.000Z,54
2019-02-22T13:37:30.000Z,54
2019-02-22T13:38:30.000Z,54
2019-02-22T13:39:31.000Z,54
2019-02-22T13:40:31.000Z,54
2019-02-22T13:41:31.000Z,55
2019-02-22T13:42:31.000Z,55
2019-02-22T13:43:30.000Z,55
2019-02-22T13:44:30.000Z,56
2019-02-22T13:45:31.000Z,56
2019-02-22T13:46:31.000Z,58
2019-02-22T13:47:30.000Z,56
2019-02-22T13:48:30.000Z,56
2019-02-22T13:49:31.000Z,54
2019-02-22T13:50:31.000Z,54
2019-02-22T13:51:31.000Z,54
2019-02-22T13:52:31.000Z,54
2019-02-22T13:53:31.000Z,57
2019-02-22T13:54:30.000Z,57
2019-02-22T13:55:30.000Z,58
2019-02-22T13:56:31.000Z,57
2019-02-22T13:57:30.000Z,58
2019-02-22T13:58:29.000Z,52
2019-02-22T13:59:31.000Z,57
2019-02-22T14:00:30.000Z,59
2019-02-22T14:01:30.000Z,59
2019-02-22T14:02:31.000Z,59
2019-02-22T14:03:31.000Z,56
2019-02-22T14:04:31.000Z,55
2019-02-22T14:05:30.000Z,53
2019-02-22T14:06:30.000Z,54
2019-02-22T14:07:31.000Z,53
2019-02-22T14:08:31.000Z,51
2019-02-22T14:09:32.000Z,52
2019-02-22T14:10:31.000Z,49
2019-02-22T14:11:31.000Z,51
2019-02-22T14:12:30.000Z,50
2019-02-22T14:13:31.000Z,48
2019-02-22T14:14:30.000Z,49
2019-02-22T14:15:31.000Z,50
2019-02-22T14:16:30.000Z,51
2019-02-22T14:17:31.000Z,51
2019-02-22T14:18:30.000Z,51
2019-02-22T14:19:31.000Z,51
2019-02-22T14:20:31.000Z,50
2019-02-22T14:21:31.000Z,50
2019-02-22T14:22:31.000Z,49
2019-02-22T14:23:31.000Z,48
2019-02-22T14:24:31.000Z,49
2019-02-22T14:25:31.000Z,49
2019-02-22T14:26:31.000Z,51
2019-02-22T14:27:31.000Z,52
2019-02-22T14:28:31.000Z,50
2019-02-22T14:29:31.000Z,50
2019-02-22T14:30:31.000Z,52
2019-02-22T14:31:30.000Z,52
2019-02-22T14:32:30.000Z,52
2019-02-22T14:33:30.000Z,50
2019-02-22T14:34:31.000Z,50
2019-02-22T14:35:31.000Z,53
2019-02-22T14:36:30.000Z,55
2019-02-22T14:37:30.000Z,54
2019-02-22T14:38:30.000Z,54
2019-02-22T14:39:31.000Z,54
2019-02-22T14:40:31.000Z,53
2019-02-22T14:41:31.000Z,54
2019-02-22T14:42:30.000Z,54
2019-02-22T14:43:30.000Z,53
2019-02-22T14:44:30.000Z,53
2019-02-22T14:45:30.000Z,54
2019-02-22T14:46:31.000Z,54
2019-02-22T14:47:31.000Z,54
2019-02-22T14:48:31.000Z,57
2019-02-22T14:49:31.000Z,54
2019-02-22T14:50:31.000Z,55
2019-02-22T14:51:30.000Z,58
2019-02-22T14:52:30.000Z,55
2019-02-22T14:53:29.000Z,59
2019-02-22T14:54:31.000Z,59
2019-02-22T14:55:31.000Z,56
2019-02-22T14:56:31.000Z,56
2019-02-22T14:57:31.000Z,57
2019-02-22T14:58:29.000Z,57
2019-02-22T14:59:30.000Z,57
2019-02-22T15:00:31.000Z,57
2019-02-22T15:01:30.000Z,57
2019-02-22T15:02:29.000Z,57
2019-02-22T15:03:30.000Z,57
2019-02-22T15:04:30.000Z,57
2019-02-22T15:05:29.000Z,57
2019-02-22T15:06:31.000Z,57
2019-02-22T15:07:31.000Z,57
2019-02-22T15:08:30.000Z,57
2019-02-22T15:09:32.000Z,56
2019-02-22T15:10:30.000Z,57
2019-02-22T15:11:30.000Z,56
2019-02-22T15:12:30.000Z,60
2019-02-22T15:13:30.000Z,57
2019-02-22T15:14:30.000Z,61
2019-02-22T15:15:31.000Z,57
2019-02-22T15:16:31.000Z,57
2019-02-22T15:17:30.000Z,57
2019-02-22T15:18:30.000Z,57
2019-02-22T15:19:31.000Z,57
2019-02-22T15:20:30.000Z,57
2019-02-22T15:21:30.000Z,58
2019-02-22T15:22:30.000Z,57
2019-02-22T15:23:30.000Z,58
2019-02-22T15:24:31.000Z,57
2019-02-22T15:25:29.000Z,61
2019-02-22T15:26:30.000Z,57
2019-02-22T15:27:30.000Z,57
2019-02-22T15:28:30.000Z,57
2019-02-22T15:29:30.000Z,57
2019-02-22T15:30:31.000Z,57
2019-02-22T15:31:31.000Z,57
2019-02-22T15:32:30.000Z,57
2019-02-22T15:33:31.000Z,57
2019-02-22T15:34:30.000Z,57
2019-02-22T15:35:30.000Z,57
2019-02-22T15:36:31.000Z,57
2019-02-22T15:37:30.000Z,62
2019-02-22T15:38:30.000Z,58
2019-02-22T15:39:31.000Z,58
2019-02-22T15:40:31.000Z,58
2019-02-22T15:41:30.000Z,58
2019-02-22T15:42:31.000Z,58
2019-02-22T15:43:30.000Z,58
2019-02-22T15:44:31.000Z,58
2019-02-22T15:45:30.000Z,58
2019-02-22T15:46:30.000Z,58
2019-02-22T15:47:31.000Z,63
2019-02-22T15:48:32.000Z,64
2019-02-22T15:49:31.000Z,59
2019-02-22T15:50:31.000Z,59
2019-02-22T15:51:30.000Z,59
2019-02-22T15:52:31.000Z,59
2019-02-22T15:53:30.000Z,59
2019-02-22T15:54:30.000Z,59
2019-02-22T15:55:31.000Z,60
2019-02-22T15:56:30.000Z,65
2019-02-22T15:57:31.000Z,59
2019-02-22T15:58:30.000Z,59
2019-02-22T15:59:30.000Z,64
2019-02-22T16:00:31.000Z,59
2019-02-22T16:01:31.000Z,59
2019-02-22T16:02:31.000Z,60
2019-02-22T16:03:30.000Z,59
2019-02-22T16:04:31.000Z,59
2019-02-22T16:05:30.000Z,59
2019-02-22T16:06:30.000Z,58
2019-02-22T16:07:31.000Z,58
2019-02-22T16:08:30.000Z,59
2019-02-22T16:09:31.000Z,59
2019-02-22T16:10:30.000Z,59
2019-02-22T16:11:31.000Z,59
2019-02-22T16:12:30.000Z,59
2019-02-22T16:13:30.000Z,59
2019-02-22T16:14:30.000Z,59
2019-02-22T16:15:30.000Z,59
2019-02-22T16:16:30.000Z,65
2019-02-22T16:17:31.000Z,65
2019-02-22T16:18:30.000Z,59
2019-02-22T16:19:31.000Z,59
2019-02-22T16:20:31.000Z,59
2019-02-22T16:21:30.000Z,59
2019-02-22T16:22:31.000Z,59
2019-02-22T16:23:31.000Z,59
2019-02-22T16:24:30.000Z,59
2019-02-22T16:25:30.000Z,59
2019-02-22T16:26:31.000Z,61
2019-02-22T16:27:30.000Z,61
2019-02-22T16:28:31.000Z,61
2019-02-22T16:29:30.000Z,60
2019-02-22T16:30:30.000Z,60
2019-02-22T16:31:30.000Z,60
2019-02-22T16:32:30.000Z,60
2019-02-22T16:33:31.000Z,66
2019-02-22T16:34:29.000Z,66
2019-02-22T16:35:30.000Z,61
2019-02-22T16:36:31.000Z,60
2019-02-22T16:37:31.000Z,60
2019-02-22T16:38:31.000Z,60
2019-02-22T16:39:32.000Z,59
2019-02-22T16:40:30.000Z,59
2019-02-22T16:41:30.000Z,59
2019-02-22T16:42:31.000Z,59
2019-02-22T16:43:30.000Z,59
2019-02-22T16:44:31.000Z,59
2019-02-22T16:45:30.000Z,59
2019-02-22T16:46:31.000Z,59
2019-02-22T16:47:30.000Z,65
2019-02-22T16:48:31.000Z,65
2019-02-22T16:49:30.000Z,59
2019-02-22T16:50:30.000Z,59
2019-02-22T16:51:31.000Z,58
2019-02-22T16:52:31.000Z,58
2019-02-22T16:53:31.000Z,58
2019-02-22T16:54:31.000Z,58
2019-02-22T16:55:31.000Z,58
2019-02-22T16:56:30.000Z,58
2019-02-22T16:57:30.000Z,58
2019-02-22T16:58:31.000Z,59
2019-02-22T16:59:31.000Z,59
2019-02-22T17:00:31.000Z,59
2019-02-22T17:01:31.000Z,59
2019-02-22T17:02:30.000Z,59
2019-02-22T17:03:31.000Z,59
2019-02-22T17:04:31.000Z,59
2019-02-22T17:05:31.000Z,59
2019-02-22T17:06:30.000Z,59
2019-02-22T17:07:30.000Z,59
2019-02-22T17:08:30.000Z,59
2019-02-22T17:09:32.000Z,59
2019-02-22T17:10:30.000Z,59
2019-02-22T17:11:30.000Z,59
2019-02-22T17:12:31.000Z,59
2019-02-22T17:13:31.000Z,59
2019-02-22T17:14:31.000Z,59
2019-02-22T17:15:30.000Z,59
2019-02-22T17:16:31.000Z,59
2019-02-22T17:17:31.000Z,59
2019-02-22T17:18:30.000Z,59
2019-02-22T17:19:31.000Z,67
2019-02-22T17:20:31.000Z,60
2019-02-22T17:21:31.000Z,60
2019-02-22T17:22:30.000Z,60
2019-02-22T17:23:30.000Z,60
2019-02-22T17:24:31.000Z,60
2019-02-22T17:25:30.000Z,60
2019-02-22T17:26:31.000Z,60
2019-02-22T17:27:31.000Z,60
2019-02-22T17:28:31.000Z,60
2019-02-22T17:29:31.000Z,60
2019-02-22T17:30:30.000Z,60
2019-02-22T17:31:30.000Z,60
2019-02-22T17:32:30.000Z,60
2019-02-22T17:33:30.000Z,60
2019-02-22T17:34:31.000Z,60
2019-02-22T17:35:30.000Z,60
2019-02-22T17:36:31.000Z,60
2019-02-22T17:37:31.000Z,60
2019-02-22T17:38:30.000Z,60
2019-02-22T17:39:32.000Z,60
2019-02-22T17:40:31.000Z,60
2019-02-22T17:41:31.000Z,61
2019-02-22T17:42:30.000Z,61
2019-02-22T17:43:30.000Z,61
2019-02-22T17:44:31.000Z,61
2019-02-22T17:45:31.000Z,61
2019-02-22T17:46:30.000Z,61
2019-02-22T17:47:31.000Z,61
2019-02-22T17:48:30.000Z,69
2019-02-22T17:49:31.000Z,61
2019-02-22T17:50:30.000Z,61
2019-02-22T17:51:31.000Z,61
2019-02-22T17:52:31.000Z,61
2019-02-22T17:53:30.000Z,61
2019-02-22T17:54:30.000Z,61
2019-02-22T17:55:31.000Z,61
2019-02-22T17:56:30.000Z,61
2019-02-22T17:57:31.000Z,62
2019-02-22T17:58:30.000Z,70
2019-02-22T17:59:31.000Z,62
2019-02-22T18:00:31.000Z,62
2019-02-22T18:01:30.000Z,62
2019-02-22T18:02:30.000Z,61
2019-02-22T18:03:31.000Z,62
2019-02-22T18:04:31.000Z,62
2019-02-22T18:05:30.000Z,62
2019-02-22T18:06:31.000Z,62
2019-02-22T18:07:31.000Z,62
2019-02-22T18:08:31.000Z,62
2019-02-22T18:09:31.000Z,62
2019-02-22T18:10:31.000Z,62
2019-02-22T18:11:30.000Z,62
2019-02-22T18:12:30.000Z,62
2019-02-22T18:13:31.000Z,62
2019-02-22T18:14:30.000Z,62
2019-02-22T18:15:31.000Z,62
2019-02-22T18:16:30.000Z,71
2019-02-22T18:17:30.000Z,62
2019-02-22T18:18:30.000Z,62
2019-02-22T18:19:31.000Z,62
2019-02-22T18:20:31.000Z,62
2019-02-22T18:21:31.000Z,62
2019-02-22T18:22:30.000Z,62
2019-02-22T18:23:30.000Z,62
2019-02-22T18:24:31.000Z,62
2019-02-22T18:25:30.000Z,62
2019-02-22T18:26:30.000Z,62
2019-02-22T18:27:31.000Z,72
2019-02-22T18:28:30.000Z,62
2019-02-22T18:29:31.000Z,62
2019-02-22T18:30:31.000Z,62
2019-02-22T18:31:30.000Z,72
2019-02-22T18:32:31.000Z,71
2019-02-22T18:33:31.000Z,62
2019-02-22T18:34:30.000Z,62
2019-02-22T18:35:31.000Z,62
2019-02-22T18:36:30.000Z,63
2019-02-22T18:37:31.000Z,63
2019-02-22T18:38:30.000Z,63
2019-02-22T18:39:32.000Z,63
2019-02-22T18:40:31.000Z,63
2019-02-22T18:41:30.000Z,63
2019-02-22T18:42:31.000Z,63
2019-02-22T18:43:31.000Z,63
2019-02-22T18:44:31.000Z,63
2019-02-22T18:45:31.000Z,63
2019-02-22T18:46:31.000Z,63
2019-02-22T18:47:31.000Z,63
2019-02-22T18:48:30.000Z,63
2019-02-22T18:49:31.000Z,63
2019-02-22T18:50:30.000Z,63
2019-02-22T18:51:31.000Z,63
2019-02-22T18:52:31.000Z,63
2019-02-22T18:53:30.000Z,63
2019-02-22T18:54:30.000Z,63
2019-02-22T18:55:30.000Z,63
2019-02-22T18:56:31.000Z,63
2019-02-22T18:57:30.000Z,73
2019-02-22T18:58:31.000Z,63
2019-02-22T18:59:31.000Z,63
2019-02-22T19:00:31.000Z,63
2019-02-22T19:01:30.000Z,63
2019-02-22T19:02:31.000Z,72
2019-02-22T19:03:29.000Z,73
2019-02-22T19:04:31.000Z,62
2019-02-22T19:05:31.000Z,62
2019-02-22T19:06:31.000Z,62
2019-02-22T19:07:31.000Z,73
2019-02-22T19:08:31.000Z,62
2019-02-22T19:09:31.000Z,62
2019-02-22T19:10:30.000Z,62
2019-02-22T19:11:31.000Z,62
2019-02-22T19:12:30.000Z,62
2019-02-22T19:13:30.000Z,63
2019-02-22T19:14:30.000Z,63
2019-02-22T19:15:30.000Z,63
2019-02-22T19:16:30.000Z,73
2019-02-22T19:17:30.000Z,73
2019-02-22T19:18:30.000Z,63
2019-02-22T19:19:31.000Z,63
2019-02-22T19:20:30.000Z,63
2019-02-22T19:21:31.000Z,63
2019-02-22T19:22:30.000Z,74
2019-02-22T19:23:31.000Z,73
2019-02-22T19:24:31.000Z,63
2019-02-22T19:25:31.000Z,63
2019-02-22T19:26:31.000Z,63
2019-02-22T19:27:31.000Z,63
2019-02-22T19:28:30.000Z,63
2019-02-22T19:29:30.000Z,63
2019-02-22T19:30:30.000Z,63
2019-02-22T19:31:30.000Z,63
2019-02-22T19:32:31.000Z,63
2019-02-22T19:33:30.000Z,63
2019-02-22T19:34:31.000Z,63
2019-02-22T19:35:30.000Z,63
2019-02-22T19:36:31.000Z,63
2019-02-22T19:37:30.000Z,63
2019-02-22T19:38:30.000Z,64
2019-02-22T19:39:32.000Z,64
2019-02-22T19:40:31.000Z,64
2019-02-22T19:41:30.000Z,64
2019-02-22T19:42:30.000Z,64
2019-02-22T19:43:30.000Z,64
2019-02-22T19:44:30.000Z,64
2019-02-22T19:45:31.000Z,64
2019-02-22T19:46:30.000Z,64
2019-02-22T19:47:31.000Z,64
2019-02-22T19:48:31.000Z,64
2019-02-22T19:49:31.000Z,64
2019-02-22T19:50:31.000Z,64
2019-02-22T19:51:31.000Z,64
2019-02-22T19:52:30.000Z,64
2019-02-22T19:53:30.000Z,64
2019-02-22T19:54:31.000Z,64
2019-02-22T19:55:30.000Z,64
2019-02-22T19:56:31.000Z,64
2019-02-22T19:57:31.000Z,64
2019-02-22T19:58:30.000Z,64
2019-02-22T19:59:30.000Z,64
2019-02-22T20:00:30.000Z,64
2019-02-22T20:01:30.000Z,64
2019-02-22T20:02:31.000Z,63
2019-02-22T20:03:30.000Z,63
2019-02-22T20:04:30.000Z,63
2019-02-22T20:05:30.000Z,63
2019-02-22T20:06:30.000Z,63
2019-02-22T20:07:31.000Z,63
2019-02-22T20:08:31.000Z,75
2019-02-22T20:09:29.000Z,75
2019-02-22T20:10:31.000Z,63
2019-02-22T20:11:30.000Z,63
2019-02-22T20:12:31.000Z,63
2019-02-22T20:13:30.000Z,63
2019-02-22T20:14:31.000Z,63